sensor_id;sensor_type;location;lat;lon;timestamp;temperature;humidity
71082;SHT31;58740;50.672;18.690;2022-08-03T00:00:30;18.18;76.42
71082;SHT31;58740;50.672;18.690;2022-08-03T00:03:02;18.14;76.40
71082;SHT31;58740;50.672;18.690;2022-08-03T00:05:30;18.15;76.41
71082;SHT31;58740;50.672;18.690;2022-08-03T00:08:02;18.13;76.48
71082;SHT31;58740;50.672;18.690;2022-08-03T00:10:30;18.13;76.60
71082;SHT31;58740;50.672;18.690;2022-08-03T00:12:58;18.13;76.61
71082;SHT31;58740;50.672;18.690;2022-08-03T00:15:26;18.13;76.49
71082;SHT31;58740;50.672;18.690;2022-08-03T00:17:54;18.14;76.46
71082;SHT31;58740;50.672;18.690;2022-08-03T00:20:21;18.13;76.59
71082;SHT31;58740;50.672;18.690;2022-08-03T00:22:50;18.14;76.59
71082;SHT31;58740;50.672;18.690;2022-08-03T00:25:19;18.14;76.57
71082;SHT31;58740;50.672;18.690;2022-08-03T00:27:46;18.14;76.48
71082;SHT31;58740;50.672;18.690;2022-08-03T00:30:16;18.13;76.40
71082;SHT31;58740;50.672;18.690;2022-08-03T00:32:44;18.13;76.27
71082;SHT31;58740;50.672;18.690;2022-08-03T00:35:15;18.08;76.27
71082;SHT31;58740;50.672;18.690;2022-08-03T00:38:03;18.04;76.26
71082;SHT31;58740;50.672;18.690;2022-08-03T00:40:32;18.01;76.19
71082;SHT31;58740;50.672;18.690;2022-08-03T00:43:00;18.00;76.14
71082;SHT31;58740;50.672;18.690;2022-08-03T00:45:32;17.96;76.16
71082;SHT31;58740;50.672;18.690;2022-08-03T00:48:06;17.94;76.21
71082;SHT31;58740;50.672;18.690;2022-08-03T00:50:56;17.91;76.29
71082;SHT31;58740;50.672;18.690;2022-08-03T00:53:25;17.89;76.37
71082;SHT31;58740;50.672;18.690;2022-08-03T00:55:54;17.90;76.39
71082;SHT31;58740;50.672;18.690;2022-08-03T00:58:21;17.92;76.31
71082;SHT31;58740;50.672;18.690;2022-08-03T01:00:50;17.89;76.41
71082;SHT31;58740;50.672;18.690;2022-08-03T01:03:18;17.87;76.46
71082;SHT31;58740;50.672;18.690;2022-08-03T01:08:53;17.83;76.35
71082;SHT31;58740;50.672;18.690;2022-08-03T01:11:39;17.79;76.34
71082;SHT31;58740;50.672;18.690;2022-08-03T01:14:45;17.78;76.33
71082;SHT31;58740;50.672;18.690;2022-08-03T01:20:23;17.76;76.22
71082;SHT31;58740;50.672;18.690;2022-08-03T01:26:27;17.69;76.44
71082;SHT31;58740;50.672;18.690;2022-08-03T01:32:11;17.65;76.57
71082;SHT31;58740;50.672;18.690;2022-08-03T01:35:13;17.63;76.34
71082;SHT31;58740;50.672;18.690;2022-08-03T01:38:25;17.59;76.31
71082;SHT31;58740;50.672;18.690;2022-08-03T01:41:03;17.59;76.34
71082;SHT31;58740;50.672;18.690;2022-08-03T01:43:41;17.57;76.21
71082;SHT31;58740;50.672;18.690;2022-08-03T01:46:34;17.52;76.32
71082;SHT31;58740;50.672;18.690;2022-08-03T01:49:13;17.48;76.49
71082;SHT31;58740;50.672;18.690;2022-08-03T01:51:44;17.45;76.53
71082;SHT31;58740;50.672;18.690;2022-08-03T01:54:31;17.46;76.66
71082;SHT31;58740;50.672;18.690;2022-08-03T01:57:04;17.47;76.57
71082;SHT31;58740;50.672;18.690;2022-08-03T01:59:33;17.45;76.60
71082;SHT31;58740;50.672;18.690;2022-08-03T02:02:04;17.44;76.64
71082;SHT31;58740;50.672;18.690;2022-08-03T02:04:55;17.41;76.64
71082;SHT31;58740;50.672;18.690;2022-08-03T02:07:25;17.41;76.57
71082;SHT31;58740;50.672;18.690;2022-08-03T02:09:55;17.39;76.50
71082;SHT31;58740;50.672;18.690;2022-08-03T02:12:26;17.38;76.59
71082;SHT31;58740;50.672;18.690;2022-08-03T02:14:57;17.39;76.71
71082;SHT31;58740;50.672;18.690;2022-08-03T02:17:27;17.38;76.80
71082;SHT31;58740;50.672;18.690;2022-08-03T02:20:10;17.37;76.71
71082;SHT31;58740;50.672;18.690;2022-08-03T02:22:40;17.34;76.71
71082;SHT31;58740;50.672;18.690;2022-08-03T02:25:10;17.32;76.66
71082;SHT31;58740;50.672;18.690;2022-08-03T02:27:59;17.29;76.64
71082;SHT31;58740;50.672;18.690;2022-08-03T02:30:38;17.25;76.77
71082;SHT31;58740;50.672;18.690;2022-08-03T02:33:11;17.22;76.84
71082;SHT31;58740;50.672;18.690;2022-08-03T02:35:47;17.22;76.83
71082;SHT31;58740;50.672;18.690;2022-08-03T02:38:18;17.23;76.79
71082;SHT31;58740;50.672;18.690;2022-08-03T02:40:52;17.23;76.83
71082;SHT31;58740;50.672;18.690;2022-08-03T02:43:24;17.22;76.90
71082;SHT31;58740;50.672;18.690;2022-08-03T02:46:17;17.20;76.90
71082;SHT31;58740;50.672;18.690;2022-08-03T02:48:49;17.20;76.81
71082;SHT31;58740;50.672;18.690;2022-08-03T02:51:20;17.18;76.65
71082;SHT31;58740;50.672;18.690;2022-08-03T02:53:51;17.15;76.69
71082;SHT31;58740;50.672;18.690;2022-08-03T02:56:23;17.14;76.77
71082;SHT31;58740;50.672;18.690;2022-08-03T02:58:53;17.12;77.01
71082;SHT31;58740;50.672;18.690;2022-08-03T03:01:23;17.13;77.07
71082;SHT31;58740;50.672;18.690;2022-08-03T03:03:54;17.12;76.82
71082;SHT31;58740;50.672;18.690;2022-08-03T03:06:24;17.09;76.65
71082;SHT31;58740;50.672;18.690;2022-08-03T03:08:56;17.07;76.56
71082;SHT31;58740;50.672;18.690;2022-08-03T03:11:26;17.06;76.65
71082;SHT31;58740;50.672;18.690;2022-08-03T03:13:55;17.03;76.77
71082;SHT31;58740;50.672;18.690;2022-08-03T03:16:25;17.00;76.78
71082;SHT31;58740;50.672;18.690;2022-08-03T03:18:57;16.98;76.79
71082;SHT31;58740;50.672;18.690;2022-08-03T03:21:28;16.99;76.70
71082;SHT31;58740;50.672;18.690;2022-08-03T03:23:57;17.01;76.63
71082;SHT31;58740;50.672;18.690;2022-08-03T03:26:26;17.01;76.59
71082;SHT31;58740;50.672;18.690;2022-08-03T03:28:54;16.98;76.68
71082;SHT31;58740;50.672;18.690;2022-08-03T03:31:22;16.96;76.73
71082;SHT31;58740;50.672;18.690;2022-08-03T03:33:50;16.95;76.76
71082;SHT31;58740;50.672;18.690;2022-08-03T03:36:18;16.93;76.76
71082;SHT31;58740;50.672;18.690;2022-08-03T03:38:46;16.94;76.98
71082;SHT31;58740;50.672;18.690;2022-08-03T03:41:14;16.95;77.10
71082;SHT31;58740;50.672;18.690;2022-08-03T03:43:42;16.97;77.01
71082;SHT31;58740;50.672;18.690;2022-08-03T03:46:13;16.98;77.09
71082;SHT31;58740;50.672;18.690;2022-08-03T03:48:41;16.98;76.98
71082;SHT31;58740;50.672;18.690;2022-08-03T03:51:09;16.99;76.87
71082;SHT31;58740;50.672;18.690;2022-08-03T03:53:37;16.98;77.05
71082;SHT31;58740;50.672;18.690;2022-08-03T03:56:05;16.97;77.28
71082;SHT31;58740;50.672;18.690;2022-08-03T03:58:33;16.97;77.26
71082;SHT31;58740;50.672;18.690;2022-08-03T04:01:00;16.97;77.29
71082;SHT31;58740;50.672;18.690;2022-08-03T04:03:30;16.99;77.12
71082;SHT31;58740;50.672;18.690;2022-08-03T04:05:58;17.02;77.08
71082;SHT31;58740;50.672;18.690;2022-08-03T04:08:44;17.02;77.16
71082;SHT31;58740;50.672;18.690;2022-08-03T04:11:46;17.02;77.18
71082;SHT31;58740;50.672;18.690;2022-08-03T04:16:58;17.05;77.26
71082;SHT31;58740;50.672;18.690;2022-08-03T04:19:33;17.05;77.27
71082;SHT31;58740;50.672;18.690;2022-08-03T04:22:09;17.05;77.31
71082;SHT31;58740;50.672;18.690;2022-08-03T04:24:50;17.05;77.31
71082;SHT31;58740;50.672;18.690;2022-08-03T04:27:26;17.04;77.39
71082;SHT31;58740;50.672;18.690;2022-08-03T04:29:59;17.06;77.57
71082;SHT31;58740;50.672;18.690;2022-08-03T04:32:31;17.09;77.71
71082;SHT31;58740;50.672;18.690;2022-08-03T04:35:02;17.12;77.77
71082;SHT31;58740;50.672;18.690;2022-08-03T04:37:39;17.13;77.66
71082;SHT31;58740;50.672;18.690;2022-08-03T04:40:14;17.17;77.76
71082;SHT31;58740;50.672;18.690;2022-08-03T04:42:56;17.21;77.83
71082;SHT31;58740;50.672;18.690;2022-08-03T04:45:26;17.25;77.90
71082;SHT31;58740;50.672;18.690;2022-08-03T04:47:57;17.30;78.05
71082;SHT31;58740;50.672;18.690;2022-08-03T04:50:29;17.35;78.13
71082;SHT31;58740;50.672;18.690;2022-08-03T04:52:57;17.40;78.15
71082;SHT31;58740;50.672;18.690;2022-08-03T04:55:27;17.45;78.05
71082;SHT31;58740;50.672;18.690;2022-08-03T04:57:57;17.53;78.12
71082;SHT31;58740;50.672;18.690;2022-08-03T05:00:25;17.62;78.11
71082;SHT31;58740;50.672;18.690;2022-08-03T05:02:54;17.70;78.13
71082;SHT31;58740;50.672;18.690;2022-08-03T05:05:23;17.77;78.18
71082;SHT31;58740;50.672;18.690;2022-08-03T05:07:50;17.83;78.17
71082;SHT31;58740;50.672;18.690;2022-08-03T05:10:19;17.91;78.10
71082;SHT31;58740;50.672;18.690;2022-08-03T05:12:46;18.00;78.02
71082;SHT31;58740;50.672;18.690;2022-08-03T05:15:15;18.08;78.07
71082;SHT31;58740;50.672;18.690;2022-08-03T05:17:42;18.18;77.89
71082;SHT31;58740;50.672;18.690;2022-08-03T05:20:11;18.28;77.79
71082;SHT31;58740;50.672;18.690;2022-08-03T05:22:39;18.37;77.75
71082;SHT31;58740;50.672;18.690;2022-08-03T05:25:07;18.43;77.76
71082;SHT31;58740;50.672;18.690;2022-08-03T05:27:35;18.45;77.85
71082;SHT31;58740;50.672;18.690;2022-08-03T05:30:02;18.48;77.90
71082;SHT31;58740;50.672;18.690;2022-08-03T05:32:51;18.52;78.03
71082;SHT31;58740;50.672;18.690;2022-08-03T05:35:19;18.58;78.10
71082;SHT31;58740;50.672;18.690;2022-08-03T05:38:07;18.68;78.16
71082;SHT31;58740;50.672;18.690;2022-08-03T05:40:35;18.79;78.02
71082;SHT31;58740;50.672;18.690;2022-08-03T05:43:03;18.90;77.91
71082;SHT31;58740;50.672;18.690;2022-08-03T05:45:31;19.06;77.85
71082;SHT31;58740;50.672;18.690;2022-08-03T05:47:58;19.24;77.32
71082;SHT31;58740;50.672;18.690;2022-08-03T05:50:26;19.39;77.36
71082;SHT31;58740;50.672;18.690;2022-08-03T05:52:54;19.55;77.01
71082;SHT31;58740;50.672;18.690;2022-08-03T05:55:24;19.69;76.73
71082;SHT31;58740;50.672;18.690;2022-08-03T05:57:52;19.82;76.46
71082;SHT31;58740;50.672;18.690;2022-08-03T06:00:23;19.95;76.44
71082;SHT31;58740;50.672;18.690;2022-08-03T06:02:52;20.10;76.06
71082;SHT31;58740;50.672;18.690;2022-08-03T06:05:19;20.30;76.15
71082;SHT31;58740;50.672;18.690;2022-08-03T06:07:47;20.52;75.70
71082;SHT31;58740;50.672;18.690;2022-08-03T06:10:15;20.68;74.91
71082;SHT31;58740;50.672;18.690;2022-08-03T06:13:02;20.79;74.35
71082;SHT31;58740;50.672;18.690;2022-08-03T06:15:30;20.87;74.00
71082;SHT31;58740;50.672;18.690;2022-08-03T06:17:59;20.97;73.63
71082;SHT31;58740;50.672;18.690;2022-08-03T06:20:28;21.01;72.95
71082;SHT31;58740;50.672;18.690;2022-08-03T06:22:56;21.08;73.74
71082;SHT31;58740;50.672;18.690;2022-08-03T06:25:27;21.23;73.31
71082;SHT31;58740;50.672;18.690;2022-08-03T06:27:55;21.36;73.20
71082;SHT31;58740;50.672;18.690;2022-08-03T06:30:23;21.51;72.55
71082;SHT31;58740;50.672;18.690;2022-08-03T06:32:51;21.58;71.53
71082;SHT31;58740;50.672;18.690;2022-08-03T06:35:19;21.62;71.34
71082;SHT31;58740;50.672;18.690;2022-08-03T06:37:48;21.67;71.53
71082;SHT31;58740;50.672;18.690;2022-08-03T06:40:19;21.79;71.40
71082;SHT31;58740;50.672;18.690;2022-08-03T06:42:58;21.86;71.22
71082;SHT31;58740;50.672;18.690;2022-08-03T06:45:30;21.94;71.00
71082;SHT31;58740;50.672;18.690;2022-08-03T06:48:03;22.03;71.28
71082;SHT31;58740;50.672;18.690;2022-08-03T06:50:35;22.18;71.32
71082;SHT31;58740;50.672;18.690;2022-08-03T06:53:06;22.30;70.41
71082;SHT31;58740;50.672;18.690;2022-08-03T06:55:44;22.38;70.17
71082;SHT31;58740;50.672;18.690;2022-08-03T06:58:12;22.50;70.68
71082;SHT31;58740;50.672;18.690;2022-08-03T07:00:39;22.64;71.00
71082;SHT31;58740;50.672;18.690;2022-08-03T07:03:07;22.78;70.40
71082;SHT31;58740;50.672;18.690;2022-08-03T07:05:35;22.92;70.01
71082;SHT31;58740;50.672;18.690;2022-08-03T07:08:02;23.04;69.36
71082;SHT31;58740;50.672;18.690;2022-08-03T07:10:30;23.19;69.38
71082;SHT31;58740;50.672;18.690;2022-08-03T07:12:58;23.33;69.01
71082;SHT31;58740;50.672;18.690;2022-08-03T07:15:26;23.39;67.85
71082;SHT31;58740;50.672;18.690;2022-08-03T07:18:13;23.42;67.53
71082;SHT31;58740;50.672;18.690;2022-08-03T07:20:41;23.47;67.15
71082;SHT31;58740;50.672;18.690;2022-08-03T07:23:09;23.52;67.16
71082;SHT31;58740;50.672;18.690;2022-08-03T07:25:45;23.54;66.61
71082;SHT31;58740;50.672;18.690;2022-08-03T07:28:13;23.58;66.08
71082;SHT31;58740;50.672;18.690;2022-08-03T07:30:41;23.62;65.75
71082;SHT31;58740;50.672;18.690;2022-08-03T07:33:09;23.66;65.56
71082;SHT31;58740;50.672;18.690;2022-08-03T07:35:36;23.71;64.69
71082;SHT31;58740;50.672;18.690;2022-08-03T07:38:04;23.77;64.88
71082;SHT31;58740;50.672;18.690;2022-08-03T07:40:33;23.83;65.10
71082;SHT31;58740;50.672;18.690;2022-08-03T07:43:00;23.78;63.63
71082;SHT31;58740;50.672;18.690;2022-08-03T07:45:30;23.72;62.69
71082;SHT31;58740;50.672;18.690;2022-08-03T07:47:58;23.71;62.32
71082;SHT31;58740;50.672;18.690;2022-08-03T07:50:26;23.77;62.59
71082;SHT31;58740;50.672;18.690;2022-08-03T07:52:53;23.83;62.81
71082;SHT31;58740;50.672;18.690;2022-08-03T07:55:22;23.85;63.10
71082;SHT31;58740;50.672;18.690;2022-08-03T07:58:03;23.88;62.35
71082;SHT31;58740;50.672;18.690;2022-08-03T08:00:50;23.90;61.80
71082;SHT31;58740;50.672;18.690;2022-08-03T08:03:19;23.83;61.40
71082;SHT31;58740;50.672;18.690;2022-08-03T08:05:50;23.68;61.27
71082;SHT31;58740;50.672;18.690;2022-08-03T08:08:18;23.57;61.91
71082;SHT31;58740;50.672;18.690;2022-08-03T08:10:46;23.52;61.95
71082;SHT31;58740;50.672;18.690;2022-08-03T08:13:24;23.50;61.54
71082;SHT31;58740;50.672;18.690;2022-08-03T08:15:52;23.44;60.05
71082;SHT31;58740;50.672;18.690;2022-08-03T08:18:20;23.44;60.60
71082;SHT31;58740;50.672;18.690;2022-08-03T08:20:48;23.50;61.71
71082;SHT31;58740;50.672;18.690;2022-08-03T08:23:17;23.57;61.47
71082;SHT31;58740;50.672;18.690;2022-08-03T08:26:09;23.64;60.72
71082;SHT31;58740;50.672;18.690;2022-08-03T08:28:37;23.69;60.05
71082;SHT31;58740;50.672;18.690;2022-08-03T08:31:05;23.76;61.04
71082;SHT31;58740;50.672;18.690;2022-08-03T08:33:33;23.88;61.61
71082;SHT31;58740;50.672;18.690;2022-08-03T08:36:22;24.00;60.29
71082;SHT31;58740;50.672;18.690;2022-08-03T08:38:50;24.10;59.41
71082;SHT31;58740;50.672;18.690;2022-08-03T08:41:18;24.18;58.78
71082;SHT31;58740;50.672;18.690;2022-08-03T08:43:46;24.22;58.74
71082;SHT31;58740;50.672;18.690;2022-08-03T08:46:13;24.29;58.26
71082;SHT31;58740;50.672;18.690;2022-08-03T08:48:50;24.35;58.26
71082;SHT31;58740;50.672;18.690;2022-08-03T08:51:21;24.39;56.87
71082;SHT31;58740;50.672;18.690;2022-08-03T08:54:16;24.44;57.28
71082;SHT31;58740;50.672;18.690;2022-08-03T08:56:49;24.43;57.77
71082;SHT31;58740;50.672;18.690;2022-08-03T08:59:19;24.39;58.38
71082;SHT31;58740;50.672;18.690;2022-08-03T09:01:48;24.38;58.70
71082;SHT31;58740;50.672;18.690;2022-08-03T09:04:16;24.41;57.02
71082;SHT31;58740;50.672;18.690;2022-08-03T09:06:44;24.43;56.19
71082;SHT31;58740;50.672;18.690;2022-08-03T09:09:31;24.42;56.39
71082;SHT31;58740;50.672;18.690;2022-08-03T09:12:20;24.39;57.04
71082;SHT31;58740;50.672;18.690;2022-08-03T09:15:23;24.36;56.96
71082;SHT31;58740;50.672;18.690;2022-08-03T09:17:55;24.42;56.51
71082;SHT31;58740;50.672;18.690;2022-08-03T09:20:26;24.48;55.59
71082;SHT31;58740;50.672;18.690;2022-08-03T09:22:57;24.54;54.98
71082;SHT31;58740;50.672;18.690;2022-08-03T09:25:44;24.61;54.69
71082;SHT31;58740;50.672;18.690;2022-08-03T09:28:16;24.69;55.39
71082;SHT31;58740;50.672;18.690;2022-08-03T09:31:05;24.77;55.09
71082;SHT31;58740;50.672;18.690;2022-08-03T09:33:37;24.81;54.99
71082;SHT31;58740;50.672;18.690;2022-08-03T09:36:33;24.85;54.94
71082;SHT31;58740;50.672;18.690;2022-08-03T09:39:07;24.88;53.58
71082;SHT31;58740;50.672;18.690;2022-08-03T09:41:42;24.92;53.11
71082;SHT31;58740;50.672;18.690;2022-08-03T09:44:13;25.00;51.55
71082;SHT31;58740;50.672;18.690;2022-08-03T09:46:54;25.09;51.40
71082;SHT31;58740;50.672;18.690;2022-08-03T09:49:23;25.16;51.81
71082;SHT31;58740;50.672;18.690;2022-08-03T09:51:52;25.23;51.15
71082;SHT31;58740;50.672;18.690;2022-08-03T09:54:40;25.25;52.20
71082;SHT31;58740;50.672;18.690;2022-08-03T09:57:31;25.31;52.16
71082;SHT31;58740;50.672;18.690;2022-08-03T10:00:11;25.35;52.20
71082;SHT31;58740;50.672;18.690;2022-08-03T10:02:43;25.32;50.85
71082;SHT31;58740;50.672;18.690;2022-08-03T10:05:11;25.27;50.68
71082;SHT31;58740;50.672;18.690;2022-08-03T10:07:48;25.25;50.89
71082;SHT31;58740;50.672;18.690;2022-08-03T10:10:17;25.26;51.43
71082;SHT31;58740;50.672;18.690;2022-08-03T10:12:58;25.32;52.02
71082;SHT31;58740;50.672;18.690;2022-08-03T10:15:26;25.36;51.11
71082;SHT31;58740;50.672;18.690;2022-08-03T10:18:14;25.43;51.05
71082;SHT31;58740;50.672;18.690;2022-08-03T10:20:44;25.48;51.00
71082;SHT31;58740;50.672;18.690;2022-08-03T10:23:19;25.47;48.71
71082;SHT31;58740;50.672;18.690;2022-08-03T10:25:52;25.44;48.52
71082;SHT31;58740;50.672;18.690;2022-08-03T10:28:26;25.44;49.51
71082;SHT31;58740;50.672;18.690;2022-08-03T10:31:01;25.50;48.38
71082;SHT31;58740;50.672;18.690;2022-08-03T10:33:36;25.55;48.69
71082;SHT31;58740;50.672;18.690;2022-08-03T10:36:22;25.60;49.13
71082;SHT31;58740;50.672;18.690;2022-08-03T10:38:54;25.66;50.68
71082;SHT31;58740;50.672;18.690;2022-08-03T10:41:25;25.70;50.57
71082;SHT31;58740;50.672;18.690;2022-08-03T10:44:07;25.72;49.13
71082;SHT31;58740;50.672;18.690;2022-08-03T10:46:44;25.72;48.71
71082;SHT31;58740;50.672;18.690;2022-08-03T10:49:17;25.73;47.79
71082;SHT31;58740;50.672;18.690;2022-08-03T10:52:02;25.73;47.00
71082;SHT31;58740;50.672;18.690;2022-08-03T10:54:51;25.71;46.13
71082;SHT31;58740;50.672;18.690;2022-08-03T10:57:45;25.68;45.73
71082;SHT31;58740;50.672;18.690;2022-08-03T11:00:26;25.70;46.41
71082;SHT31;58740;50.672;18.690;2022-08-03T11:03:00;25.70;46.60
71082;SHT31;58740;50.672;18.690;2022-08-03T11:05:34;25.71;46.59
71082;SHT31;58740;50.672;18.690;2022-08-03T11:10:49;25.78;48.78
71082;SHT31;58740;50.672;18.690;2022-08-03T11:13:21;25.81;47.99
71082;SHT31;58740;50.672;18.690;2022-08-03T11:15:54;25.84;47.32
71082;SHT31;58740;50.672;18.690;2022-08-03T11:18:28;25.85;47.64
71082;SHT31;58740;50.672;18.690;2022-08-03T11:20:57;25.88;48.86
71082;SHT31;58740;50.672;18.690;2022-08-03T11:23:46;25.93;48.28
71082;SHT31;58740;50.672;18.690;2022-08-03T11:26:32;25.99;47.63
71082;SHT31;58740;50.672;18.690;2022-08-03T11:31:56;26.01;46.40
71082;SHT31;58740;50.672;18.690;2022-08-03T11:34:24;26.02;46.14
71082;SHT31;58740;50.672;18.690;2022-08-03T11:39:50;26.03;46.78
71082;SHT31;58740;50.672;18.690;2022-08-03T11:44:49;26.06;46.12
71082;SHT31;58740;50.672;18.690;2022-08-03T11:47:23;26.07;46.94
71082;SHT31;58740;50.672;18.690;2022-08-03T11:49:55;26.09;45.56
71082;SHT31;58740;50.672;18.690;2022-08-03T11:52:26;26.10;46.21
71082;SHT31;58740;50.672;18.690;2022-08-03T11:55:06;26.13;46.84
71082;SHT31;58740;50.672;18.690;2022-08-03T11:57:36;26.19;45.93
71082;SHT31;58740;50.672;18.690;2022-08-03T12:00:28;26.25;44.65
71082;SHT31;58740;50.672;18.690;2022-08-03T12:03:05;26.26;44.68
71082;SHT31;58740;50.672;18.690;2022-08-03T12:10:59;26.26;45.66
71082;SHT31;58740;50.672;18.690;2022-08-03T12:13:36;26.29;45.64
71082;SHT31;58740;50.672;18.690;2022-08-03T12:16:37;26.34;45.21
71082;SHT31;58740;50.672;18.690;2022-08-03T12:19:05;26.37;44.77
71082;SHT31;58740;50.672;18.690;2022-08-03T12:21:34;26.38;45.13
71082;SHT31;58740;50.672;18.690;2022-08-03T12:24:23;26.40;44.31
71082;SHT31;58740;50.672;18.690;2022-08-03T12:26:54;26.43;43.76
71082;SHT31;58740;50.672;18.690;2022-08-03T12:29:26;26.45;44.92
71082;SHT31;58740;50.672;18.690;2022-08-03T12:31:54;26.48;44.99
71082;SHT31;58740;50.672;18.690;2022-08-03T12:34:23;26.52;45.01
71082;SHT31;58740;50.672;18.690;2022-08-03T12:36:51;26.56;44.92
71082;SHT31;58740;50.672;18.690;2022-08-03T12:39:26;26.58;44.90
71082;SHT31;58740;50.672;18.690;2022-08-03T12:41:57;26.60;45.04
71082;SHT31;58740;50.672;18.690;2022-08-03T12:44:32;26.61;44.80
71082;SHT31;58740;50.672;18.690;2022-08-03T12:47:02;26.59;44.20
71082;SHT31;58740;50.672;18.690;2022-08-03T12:49:45;26.58;44.48
71082;SHT31;58740;50.672;18.690;2022-08-03T12:52:19;26.58;44.02
71082;SHT31;58740;50.672;18.690;2022-08-03T12:54:59;26.57;43.92
71082;SHT31;58740;50.672;18.690;2022-08-03T12:57:40;26.58;43.31
71082;SHT31;58740;50.672;18.690;2022-08-03T13:00:12;26.55;43.81
71082;SHT31;58740;50.672;18.690;2022-08-03T13:02:59;26.57;44.68
71082;SHT31;58740;50.672;18.690;2022-08-03T13:05:53;26.58;44.55
71082;SHT31;58740;50.672;18.690;2022-08-03T13:08:22;26.57;44.33
71082;SHT31;58740;50.672;18.690;2022-08-03T13:10:51;26.59;44.54
71082;SHT31;58740;50.672;18.690;2022-08-03T13:13:36;26.62;44.63
71082;SHT31;58740;50.672;18.690;2022-08-03T13:16:05;26.66;43.79
71082;SHT31;58740;50.672;18.690;2022-08-03T13:18:33;26.69;43.43
71082;SHT31;58740;50.672;18.690;2022-08-03T13:21:01;26.68;43.66
71082;SHT31;58740;50.672;18.690;2022-08-03T13:23:28;26.70;43.79
71082;SHT31;58740;50.672;18.690;2022-08-03T13:25:56;26.70;44.29
71082;SHT31;58740;50.672;18.690;2022-08-03T13:28:24;26.71;45.40
71082;SHT31;58740;50.672;18.690;2022-08-03T13:30:51;26.73;43.96
71082;SHT31;58740;50.672;18.690;2022-08-03T13:33:21;26.72;43.53
71082;SHT31;58740;50.672;18.690;2022-08-03T13:35:48;26.72;43.31
71082;SHT31;58740;50.672;18.690;2022-08-03T13:38:16;26.70;43.65
71082;SHT31;58740;50.672;18.690;2022-08-03T13:40:47;26.69;44.26
71082;SHT31;58740;50.672;18.690;2022-08-03T13:43:17;26.70;44.66
71082;SHT31;58740;50.672;18.690;2022-08-03T13:45:47;26.72;45.10
71082;SHT31;58740;50.672;18.690;2022-08-03T13:48:19;26.72;44.28
71082;SHT31;58740;50.672;18.690;2022-08-03T13:51:04;26.74;43.81
71082;SHT31;58740;50.672;18.690;2022-08-03T13:53:49;26.79;43.82
71082;SHT31;58740;50.672;18.690;2022-08-03T13:56:18;26.79;43.96
71082;SHT31;58740;50.672;18.690;2022-08-03T13:58:46;26.78;42.95
71082;SHT31;58740;50.672;18.690;2022-08-03T14:01:13;26.75;42.60
71082;SHT31;58740;50.672;18.690;2022-08-03T14:03:41;26.73;42.97
71082;SHT31;58740;50.672;18.690;2022-08-03T14:06:09;26.74;42.73
71082;SHT31;58740;50.672;18.690;2022-08-03T14:08:37;26.72;41.63
71082;SHT31;58740;50.672;18.690;2022-08-03T14:11:04;26.70;42.44
71082;SHT31;58740;50.672;18.690;2022-08-03T14:13:33;26.68;42.73
71082;SHT31;58740;50.672;18.690;2022-08-03T14:16:01;26.63;42.44
71082;SHT31;58740;50.672;18.690;2022-08-03T14:18:29;26.63;41.86
71082;SHT31;58740;50.672;18.690;2022-08-03T14:21:01;26.67;42.16
71082;SHT31;58740;50.672;18.690;2022-08-03T14:23:33;26.68;41.66
71082;SHT31;58740;50.672;18.690;2022-08-03T14:26:06;26.67;41.68
71082;SHT31;58740;50.672;18.690;2022-08-03T14:28:35;26.67;42.58
71082;SHT31;58740;50.672;18.690;2022-08-03T14:31:03;26.64;42.98
71082;SHT31;58740;50.672;18.690;2022-08-03T14:33:41;26.62;42.01
71082;SHT31;58740;50.672;18.690;2022-08-03T14:36:09;26.60;42.41
71082;SHT31;58740;50.672;18.690;2022-08-03T14:38:37;26.59;42.37
71082;SHT31;58740;50.672;18.690;2022-08-03T14:41:05;26.57;42.74
71082;SHT31;58740;50.672;18.690;2022-08-03T14:43:38;26.56;42.89
71082;SHT31;58740;50.672;18.690;2022-08-03T14:46:26;26.57;42.56
71082;SHT31;58740;50.672;18.690;2022-08-03T14:48:53;26.59;42.15
71082;SHT31;58740;50.672;18.690;2022-08-03T14:51:41;26.59;42.05
71082;SHT31;58740;50.672;18.690;2022-08-03T14:54:20;26.59;42.14
71082;SHT31;58740;50.672;18.690;2022-08-03T14:56:49;26.59;41.77
71082;SHT31;58740;50.672;18.690;2022-08-03T14:59:17;26.60;41.79
71082;SHT31;58740;50.672;18.690;2022-08-03T15:01:44;26.61;40.93
71082;SHT31;58740;50.672;18.690;2022-08-03T15:04:32;26.62;41.51
71082;SHT31;58740;50.672;18.690;2022-08-03T15:07:00;26.65;41.32
71082;SHT31;58740;50.672;18.690;2022-08-03T15:09:27;26.66;41.05
71082;SHT31;58740;50.672;18.690;2022-08-03T15:11:55;26.68;40.39
71082;SHT31;58740;50.672;18.690;2022-08-03T15:14:23;26.68;40.54
71082;SHT31;58740;50.672;18.690;2022-08-03T15:16:59;26.71;41.17
71082;SHT31;58740;50.672;18.690;2022-08-03T15:19:27;26.74;41.11
71082;SHT31;58740;50.672;18.690;2022-08-03T15:22:15;26.73;41.34
71082;SHT31;58740;50.672;18.690;2022-08-03T15:24:47;26.72;41.64
71082;SHT31;58740;50.672;18.690;2022-08-03T15:27:14;26.72;41.96
71082;SHT31;58740;50.672;18.690;2022-08-03T15:29:42;26.73;41.85
71082;SHT31;58740;50.672;18.690;2022-08-03T15:32:30;26.72;42.11
71082;SHT31;58740;50.672;18.690;2022-08-03T15:34:58;26.69;43.13
71082;SHT31;58740;50.672;18.690;2022-08-03T15:37:26;26.67;43.57
71082;SHT31;58740;50.672;18.690;2022-08-03T15:39:54;26.65;43.74
71082;SHT31;58740;50.672;18.690;2022-08-03T15:42:27;26.65;43.35
71082;SHT31;58740;50.672;18.690;2022-08-03T15:44:57;26.65;43.79
71082;SHT31;58740;50.672;18.690;2022-08-03T15:47:25;26.64;44.02
71082;SHT31;58740;50.672;18.690;2022-08-03T15:49:53;26.64;44.32
71082;SHT31;58740;50.672;18.690;2022-08-03T15:52:21;26.64;44.01
71082;SHT31;58740;50.672;18.690;2022-08-03T15:54:49;26.62;44.03
71082;SHT31;58740;50.672;18.690;2022-08-03T15:57:17;26.61;43.45
71082;SHT31;58740;50.672;18.690;2022-08-03T15:59:46;26.61;43.77
71082;SHT31;58740;50.672;18.690;2022-08-03T16:02:14;26.61;43.85
71082;SHT31;58740;50.672;18.690;2022-08-03T16:04:42;26.59;43.83
71082;SHT31;58740;50.672;18.690;2022-08-03T16:07:10;26.57;43.61
71082;SHT31;58740;50.672;18.690;2022-08-03T16:09:40;26.56;43.64
71082;SHT31;58740;50.672;18.690;2022-08-03T16:12:10;26.52;44.10
71082;SHT31;58740;50.672;18.690;2022-08-03T16:14:43;26.48;44.11
71082;SHT31;58740;50.672;18.690;2022-08-03T16:17:20;26.44;44.57
71082;SHT31;58740;50.672;18.690;2022-08-03T16:19:50;26.41;44.62
71082;SHT31;58740;50.672;18.690;2022-08-03T16:22:24;26.39;44.37